»·PEaware :: N808PF KSBP-KSAC

N808PF :: KSBP-KSAC

FLIGHT INFORMATION

Flight Status: Arrived
Operator: Privately registered:
United States
More flights under this callsign
Pilot: Ben L. (6391)
Aircraft: SOCATA TBM-900
(TBM9)
More flights by this aircraft type
Origin: KSBP San Luis Co Regl
United States
Destination: KSAC Sacramento Executive
United States
More flights between these airports :: More routes between these airports
Route: +FRAMS V27 BSR
File this flight plan on PilotEdge
Remarks:
Altitude:
(Current/Filed)
20,000ft
Speed:
(Current/Filed)
300kts
Departed: 18-Jul-19 05:24 PM
Arrived: 18-Jul-19 06:20 PM
Distance/Time
Traveled:
201nm/0:56
Distance/Time
To Go:
Arrived

Flight Plot

Page will automatically refresh every two minutes.

Flight plan parsing failed; only flown route is shown


Map Options




Map Legend


Flown Route
Filed Route
Departure Airport
Arrival Airport
Navaid (VOR, NDB)
Fix

Horizontal Profiles

Position Reports

Time Latitude Longitude Heading Altitude Ground
Speed
18-Jul-19 17:09 35.238899 -120.639407 179 214ft 0kts
18-Jul-19 17:11 35.238899 -120.639407 179 214ft 0kts
18-Jul-19 17:12 35.238899 -120.639407 179 214ft 0kts
18-Jul-19 17:12 35.238899 -120.639407 179 214ft 0kts
18-Jul-19 17:13 35.238899 -120.639407 179 214ft 0kts
18-Jul-19 17:15 35.238899 -120.639407 179 214ft 0kts
18-Jul-19 17:16 35.238899 -120.639407 179 214ft 0kts
18-Jul-19 17:16 35.238899 -120.639407 179 214ft 0kts
18-Jul-19 17:17 35.238899 -120.639407 179 214ft 0kts
18-Jul-19 17:18 35.238442 -120.639443 186 214ft 4kts
18-Jul-19 17:19 35.236390 -120.637216 122 214ft 19kts
18-Jul-19 17:20 35.233715 -120.632488 127 214ft 5kts
18-Jul-19 17:21 35.233307 -120.632212 183 214ft 0kts
18-Jul-19 17:22 35.233208 -120.632226 187 214ft 0kts
18-Jul-19 17:23 35.234361 -120.635587 304 214ft 78kts
18-Jul-19 17:24 35.249252 -120.665356 298 1394ft 117kts
18-Jul-19 17:25 35.266207 -120.701227 302 2713ft 124kts
18-Jul-19 17:26 35.284401 -120.736623 295 4021ft 124kts
18-Jul-19 17:27 35.300332 -120.775220 293 5262ft 131kts
18-Jul-19 17:28 35.318685 -120.820593 293 5857ft 199kts
18-Jul-19 17:29 35.345509 -120.886186 294 6928ft 222kts
18-Jul-19 17:30 35.374593 -120.951106 305 7973ft 230kts
18-Jul-19 17:31 35.416637 -121.017079 305 8058ft 253kts
18-Jul-19 17:32 35.457336 -121.081091 305 9500ft 228kts
18-Jul-19 17:33 35.495724 -121.141613 306 10972ft 221kts
18-Jul-19 17:34 35.533035 -121.200521 306 12454ft 217kts
18-Jul-19 17:35 35.569414 -121.258054 306 13899ft 235kts
18-Jul-19 17:36 35.609965 -121.322309 306 15410ft 240kts
18-Jul-19 17:37 35.661047 -121.371835 337 16902ft 245kts
18-Jul-19 17:38 35.725212 -121.404823 337 18430ft 253kts
18-Jul-19 17:39 35.790415 -121.438561 337 19921ft 255kts
18-Jul-19 17:40 35.861329 -121.475326 337 20003ft 294kts
18-Jul-19 17:41 35.934362 -121.513277 337 20012ft 307kts
18-Jul-19 17:42 36.013614 -121.554532 337 20023ft 309kts
18-Jul-19 17:43 36.092908 -121.595900 337 20028ft 308kts
18-Jul-19 17:44 36.169079 -121.635722 337 20030ft 307kts
18-Jul-19 17:45 36.253218 -121.639372 3 20032ft 305kts
18-Jul-19 17:46 36.338383 -121.636004 3 20031ft 306kts
18-Jul-19 17:47 36.423518 -121.632683 3 20019ft 306kts
18-Jul-19 17:48 36.508641 -121.629359 3 20009ft 306kts
18-Jul-19 17:49 36.593992 -121.626014 3 20009ft 306kts
18-Jul-19 17:50 36.679086 -121.622673 3 20009ft 306kts
18-Jul-19 17:51 36.764204 -121.619324 3 20008ft 306kts
18-Jul-19 17:52 36.849440 -121.615961 3 20011ft 307kts
18-Jul-19 17:53 36.935043 -121.612578 3 20018ft 308kts
18-Jul-19 17:54 37.020877 -121.609147 2 20021ft 308kts
18-Jul-19 17:55 37.102240 -121.605920 1 20020ft 308kts
18-Jul-19 17:56 37.189854 -121.602456 1 19997ft 307kts
18-Jul-19 17:57 37.275320 -121.599049 1 19968ft 306kts
18-Jul-19 17:58 37.360362 -121.595649 1 19950ft 306kts
18-Jul-19 17:59 37.445491 -121.592238 1 19934ft 306kts
18-Jul-19 18:00 37.530800 -121.588815 1 19923ft 306kts
18-Jul-19 18:01 37.615963 -121.585385 1 19914ft 306kts
18-Jul-19 18:02 37.700772 -121.581965 1 19913ft 306kts
18-Jul-19 18:03 37.785986 -121.578519 1 19913ft 306kts
18-Jul-19 18:04 37.871454 -121.575057 1 19457ft 309kts
18-Jul-19 18:05 37.957813 -121.571554 1 18462ft 311kts
18-Jul-19 18:06 38.044303 -121.568031 1 17465ft 311kts
18-Jul-19 18:07 38.125987 -121.564692 1 16196ft 307kts
18-Jul-19 18:08 38.209658 -121.561269 1 14168ft 297kts
18-Jul-19 18:09 38.290003 -121.550877 32 12096ft 289kts
18-Jul-19 18:10 38.353643 -121.495040 34 10097ft 272kts
18-Jul-19 18:11 38.415537 -121.440453 34 8083ft 269kts
18-Jul-19 18:12 38.476979 -121.386280 34 6072ft 267kts
18-Jul-19 18:13 38.538519 -121.333778 20 4041ft 266kts
18-Jul-19 18:14 38.588428 -121.369710 310 2564ft 181kts
18-Jul-19 18:15 38.587512 -121.421523 240 1904ft 168kts
18-Jul-19 18:16 38.557158 -121.458081 212 889ft 127kts
18-Jul-19 18:17 38.534438 -121.476295 215 503ft 70kts
18-Jul-19 18:18 38.516486 -121.491367 214 52ft 68kts
18-Jul-19 18:19 38.508670 -121.498901 305 22ft 7kts
18-Jul-19 18:20 38.511399 -121.497649 312 22ft 13kts

Navigation Log

Ident Type
Flight plan parsing failed, navigation log unavailable